Time;durP1;ratioP1;P1;durP2;ratioP2;P2;SDS_P1;SDS_P2;PMS_P1;PMS_P2;Temp;Humidity;BMP_temperature;BMP_pressure;BME280_temperature;BME280_humidity;BME280_pressure;Samples;Min_cycle;Max_cycle;Signal;HPM_P1;HPM_P2
2021/05/08 00:02:22;;;;;;;;;;;;;;;28.07;33.45;99973.19;5056783;28;846;-35
2021/05/08 00:04:47;;;;;;;;;;;;;;;28.28;32.93;99980.25;5056772;28;810;-34
2021/05/08 00:07:12;;;;;;;;;;;;;;;28.48;32.66;99971.28;5056626;28;855;-38
2021/05/08 00:09:38;;;;;;;;;;;;;;;28.63;32.17;99973.75;5056510;28;991;-36
2021/05/08 00:12:03;;;;;;;;;;;;;;;28.67;32.05;99975.00;5056731;28;755;-35
2021/05/08 00:14:28;;;;;;;;;;;;;;;28.69;32.33;99964.81;5056412;28;836;-30
2021/05/08 00:16:54;;;;;;;;;;;;;;;28.77;31.86;99965.59;5056649;28;799;-32
2021/05/08 00:19:19;;;;;;;;;;;;;;;28.66;31.98;99964.41;5056144;28;1981;-38
2021/05/08 00:21:45;;;;;;;;;;;;;;;28.69;32.08;99959.41;5056327;28;1100;-38
2021/05/08 00:24:10;;;;;;;;;;;;;;;28.70;32.12;99965.63;5056052;28;943;-38
2021/05/08 00:26:35;;;;;;;;;;;;;;;28.16;33.24;99961.13;5056557;28;756;-38
2021/05/08 00:29:10;;;;;;;;;;;;;;;28.11;33.16;99969.03;5056249;28;783;-34
2021/05/08 00:31:35;;;;;;;;;;;;;;;28.03;33.68;99966.56;5056477;28;731;-37
2021/05/08 00:34:01;;;;;;;;;;;;;;;28.20;33.03;99965.06;5056458;28;760;-35
2021/05/08 00:36:26;;;;;;;;;;;;;;;28.29;32.67;99973.81;5055938;28;824;-38
2021/05/08 00:38:51;;;;;;;;;;;;;;;28.34;32.74;99971.31;5055955;28;1914;-38
2021/05/08 00:41:16;;;;;;;;;;;;;;;28.34;32.38;99981.31;5056185;28;745;-38
2021/05/08 00:43:42;;;;;;;;;;;;;;;28.34;32.22;99978.63;5056578;28;764;-38
2021/05/08 00:46:07;;;;;;;;;;;;;;;28.31;32.23;99973.59;5055934;28;833;-37
2021/05/08 00:48:32;;;;;;;;;;;;;;;28.38;32.25;99968.22;5056063;28;771;-38
2021/05/08 00:50:58;;;;;;;;;;;;;;;28.36;32.45;99963.03;5038572;28;800;-38
2021/05/08 00:53:23;;;;;;;;;;;;;;;28.34;32.34;99968.59;5056033;28;948;-38
2021/05/08 00:55:48;;;;;;;;;;;;;;;28.32;32.45;99956.31;5055981;28;867;-36
2021/05/08 00:58:13;;;;;;;;;;;;;;;28.33;32.44;99964.25;5056450;28;844;-35
2021/05/08 01:00:39;;;;;;;;;;;;;;;28.37;32.42;99970.06;5056012;28;1979;-36
2021/05/08 01:03:05;;;;;;;;;;;;;;;28.36;32.24;99982.75;5056088;28;834;-37
2021/05/08 01:05:32;;;;;;;;;;;;;;;28.30;32.51;99969.22;5055741;28;895;-37
2021/05/08 01:07:58;;;;;;;;;;;;;;;28.24;32.41;99971.72;5056000;28;800;-37
2021/05/08 01:10:24;;;;;;;;;;;;;;;28.28;32.39;99969.44;5038490;28;955;-37
2021/05/08 01:12:49;;;;;;;;;;;;;;;28.29;32.38;99963.00;5038333;28;756;-32
2021/05/08 01:15:15;;;;;;;;;;;;;;;28.28;32.46;99964.03;5037916;28;1290;-37
2021/05/08 01:17:40;;;;;;;;;;;;;;;28.29;32.64;99951.34;5055641;28;813;-38
2021/05/08 01:20:06;;;;;;;;;;;;;;;28.32;32.29;99948.22;5055764;28;1902;-38
2021/05/08 01:22:31;;;;;;;;;;;;;;;28.36;32.38;99944.09;5055406;28;831;-38
2021/05/08 01:24:56;;;;;;;;;;;;;;;28.34;32.61;99948.88;5041536;28;967;-38
2021/05/08 01:27:21;;;;;;;;;;;;;;;28.30;32.31;99948.41;5036006;28;855;-38
2021/05/08 01:29:47;;;;;;;;;;;;;;;28.31;32.44;99946.56;5035736;28;775;-38
2021/05/08 01:32:12;;;;;;;;;;;;;;;28.30;32.57;99943.00;5035545;28;519;-37
2021/05/08 01:34:37;;;;;;;;;;;;;;;28.28;32.79;99945.09;5035871;28;807;-38
2021/05/08 01:37:03;;;;;;;;;;;;;;;28.11;32.54;99947.41;5036311;28;767;-36
2021/05/08 01:39:29;;;;;;;;;;;;;;;28.18;32.51;99947.38;5035457;28;1922;-37
2021/05/08 01:41:55;;;;;;;;;;;;;;;28.14;32.45;99941.59;5036123;28;771;-38
2021/05/08 01:44:20;;;;;;;;;;;;;;;28.08;32.53;99945.09;5035850;28;760;-35
2021/05/08 01:46:45;;;;;;;;;;;;;;;28.11;32.55;99948.22;5050878;28;1502;-38
2021/05/08 01:49:10;;;;;;;;;;;;;;;27.98;32.83;99949.06;5035683;28;823;-37
2021/05/08 01:51:36;;;;;;;;;;;;;;;28.06;32.47;99953.44;5039217;28;846;-38
2021/05/08 01:54:01;;;;;;;;;;;;;;;27.96;32.62;99948.44;5039092;28;960;-37
2021/05/08 01:56:26;;;;;;;;;;;;;;;28.01;32.48;99939.69;5039307;28;788;-37
2021/05/08 01:58:52;;;;;;;;;;;;;;;28.01;32.50;99949.69;5054638;28;1973;-37
2021/05/08 02:01:17;;;;;;;;;;;;;;;28.06;32.47;99947.22;5038885;28;755;-37
2021/05/08 02:03:42;;;;;;;;;;;;;;;28.01;32.61;99950.50;5039013;28;755;-36
2021/05/08 02:06:08;;;;;;;;;;;;;;;27.97;32.43;99958.22;5039149;28;941;-38
2021/05/08 02:08:33;;;;;;;;;;;;;;;27.97;32.63;99957.41;5038699;28;944;-35
2021/05/08 02:10:58;;;;;;;;;;;;;;;27.95;32.20;99963.00;5038904;28;815;-34
2021/05/08 02:13:23;;;;;;;;;;;;;;;27.95;32.35;99973.81;5039298;28;831;-37
2021/05/08 02:15:49;;;;;;;;;;;;;;;27.94;32.30;99972.16;5038668;28;748;-33
2021/05/08 02:18:14;;;;;;;;;;;;;;;27.96;32.51;99964.66;5054360;28;807;-38
2021/05/08 02:20:40;;;;;;;;;;;;;;;27.90;32.29;99967.34;5038745;28;1955;-34
2021/05/08 02:23:06;;;;;;;;;;;;;;;27.71;33.21;99965.28;5038588;28;760;-37
2021/05/08 02:25:32;;;;;;;;;;;;;;;27.66;33.17;99970.44;5038374;28;971;-37
2021/05/08 02:27:57;;;;;;;;;;;;;;;27.73;33.13;99981.28;5038716;28;824;-37
2021/05/08 02:30:24;;;;;;;;;;;;;;;27.68;33.32;99981.91;5038330;28;791;-35
2021/05/08 02:32:49;;;;;;;;;;;;;;;27.70;33.08;99979.00;5038713;28;788;-36
2021/05/08 02:35:15;;;;;;;;;;;;;;;27.72;32.82;99987.72;5038530;28;819;-36
2021/05/08 02:37:40;;;;;;;;;;;;;;;27.77;32.70;99993.34;5038026;28;875;-36
2021/05/08 02:40:15;;;;;;;;;;;;;;;27.75;32.87;99995.41;5038170;28;2051;-34
2021/05/08 02:42:41;;;;;;;;;;;;;;;27.23;33.16;99998.56;5038422;28;785;-37
2021/05/08 02:45:07;;;;;;;;;;;;;;;26.90;33.90;100006.31;5038245;28;787;-38
2021/05/08 02:47:32;;;;;;;;;;;;;;;27.10;33.76;100010.16;5038281;28;844;-33
2021/05/08 02:49:57;;;;;;;;;;;;;;;27.22;34.12;100021.22;5038171;28;887;-37
2021/05/08 02:52:22;;;;;;;;;;;;;;;27.31;33.74;100013.78;5038296;28;810;-37
2021/05/08 02:54:48;;;;;;;;;;;;;;;27.44;33.33;100019.25;5037959;28;991;-38
2021/05/08 02:57:13;;;;;;;;;;;;;;;27.53;33.35;100019.06;5038023;28;807;-38
2021/05/08 02:59:38;;;;;;;;;;;;;;;27.59;32.88;100027.16;5053438;28;1906;-34
2021/05/08 03:02:04;;;;;;;;;;;;;;;27.62;32.76;100021.38;5037116;28;823;-38
2021/05/08 03:04:29;;;;;;;;;;;;;;;27.60;32.79;100028.84;5037737;28;878;-35
2021/05/08 03:06:55;;;;;;;;;;;;;;;27.72;32.76;100028.25;5037989;28;985;-36
2021/05/08 03:09:20;;;;;;;;;;;;;;;27.70;32.92;100023.06;5037686;28;987;-39
2021/05/08 03:11:45;;;;;;;;;;;;;;;27.66;32.99;100031.75;5037690;28;767;-37
2021/05/08 03:14:13;;;;;;;;;;;;;;;27.70;32.82;100036.56;5037650;28;783;-34
2021/05/08 03:16:39;;;;;;;;;;;;;;;27.76;32.69;100045.72;5037737;28;760;-36
2021/05/08 03:19:04;;;;;;;;;;;;;;;27.62;32.74;100047.53;5037622;28;1902;-38
2021/05/08 03:21:31;;;;;;;;;;;;;;;27.50;33.42;100044.59;5037319;28;1372;-34
2021/05/08 03:23:57;;;;;;;;;;;;;;;27.45;33.29;100063.25;5043533;28;996;-38
2021/05/08 03:26:22;;;;;;;;;;;;;;;27.48;33.35;100074.50;5057672;28;843;-37
2021/05/08 03:28:56;;;;;;;;;;;;;;;27.26;32.18;100081.88;5057684;28;787;-33
2021/05/08 03:31:21;;;;;;;;;;;;;;;26.63;31.91;100089.78;5057275;28;859;-39
2021/05/08 03:33:47;;;;;;;;;;;;;;;26.27;32.33;100088.00;5057139;28;791;-35
2021/05/08 03:36:12;;;;;;;;;;;;;;;26.12;32.57;100096.16;5057486;28;755;-31
2021/05/08 03:38:37;;;;;;;;;;;;;;;25.91;32.90;100095.94;5056922;28;1966;-34
2021/05/08 03:41:03;;;;;;;;;;;;;;;25.69;33.32;100103.19;5057418;28;779;-32
2021/05/08 03:43:28;;;;;;;;;;;;;;;25.72;33.10;100127.03;5057241;28;748;-34
2021/05/08 03:45:54;;;;;;;;;;;;;;;25.59;33.20;100127.66;5055122;28;1569;-29
2021/05/08 03:48:19;;;;;;;;;;;;;;;25.39;33.58;100135.50;5047070;28;763;-31
2021/05/08 03:50:45;;;;;;;;;;;;;;;25.05;34.14;100140.38;5040270;28;1482;-39
2021/05/08 03:53:10;;;;;;;;;;;;;;;25.12;33.62;100140.50;5051825;28;1514;-35
2021/05/08 03:55:37;;;;;;;;;;;;;;;25.44;34.26;100157.31;5052055;28;1196;-37
2021/05/08 03:58:04;;;;;;;;;;;;;;;25.64;33.77;100162.16;5056928;28;779;-34
2021/05/08 04:00:29;;;;;;;;;;;;;;;25.76;33.71;100159.78;5056948;28;1909;-35
2021/05/08 04:02:54;;;;;;;;;;;;;;;25.85;33.21;100179.41;5057041;28;846;-36
2021/05/08 04:05:20;;;;;;;;;;;;;;;25.89;33.02;100178.00;5056377;28;834;-36
2021/05/08 04:07:45;;;;;;;;;;;;;;;25.88;32.98;100187.09;5056854;28;791;-37
2021/05/08 04:10:10;;;;;;;;;;;;;;;25.84;32.92;100188.50;5022439;28;952;-38
2021/05/08 04:12:36;;;;;;;;;;;;;;;25.94;33.00;100182.81;5018696;28;1303;-38
2021/05/08 04:15:01;;;;;;;;;;;;;;;25.91;33.33;100189.41;5036533;28;768;-37
2021/05/08 04:17:26;;;;;;;;;;;;;;;25.89;32.94;100189.59;5036549;28;943;-38
2021/05/08 04:19:52;;;;;;;;;;;;;;;26.03;32.71;100187.06;5018529;28;1906;-37
2021/05/08 04:22:17;;;;;;;;;;;;;;;26.00;32.63;100192.84;5036479;28;787;-37
2021/05/08 04:24:42;;;;;;;;;;;;;;;26.18;32.60;100192.44;5040860;28;1125;-37
2021/05/08 04:27:08;;;;;;;;;;;;;;;26.15;32.38;100192.81;5047350;28;989;-38
2021/05/08 04:29:33;;;;;;;;;;;;;;;26.18;31.82;100187.03;5051317;28;1088;-38
2021/05/08 04:31:58;;;;;;;;;;;;;;;26.22;31.61;100191.03;5049520;28;1179;-36
2021/05/08 04:34:24;;;;;;;;;;;;;;;26.36;31.67;100188.50;5056242;28;905;-35
2021/05/08 04:36:49;;;;;;;;;;;;;;;26.32;31.73;100197.97;5056398;28;838;-38
2021/05/08 04:39:15;;;;;;;;;;;;;;;26.30;31.31;100200.84;5047622;28;1914;-36
2021/05/08 04:41:40;;;;;;;;;;;;;;;26.35;31.41;100205.69;5036104;28;810;-35
2021/05/08 04:44:06;;;;;;;;;;;;;;;26.37;31.34;100209.91;5036494;28;736;-35
2021/05/08 04:46:31;;;;;;;;;;;;;;;26.33;31.60;100224.78;5035930;28;1477;-38
2021/05/08 04:48:56;;;;;;;;;;;;;;;26.35;31.69;100233.50;5036546;28;807;-38
2021/05/08 04:51:22;;;;;;;;;;;;;;;26.41;31.73;100243.53;5036503;28;874;-34
2021/05/08 04:53:48;;;;;;;;;;;;;;;26.55;31.12;100246.38;5040362;28;960;-37
2021/05/08 04:56:14;;;;;;;;;;;;;;;26.39;31.53;100261.75;5056374;28;828;-36
2021/05/08 04:58:49;;;;;;;;;;;;;;;26.42;31.40;100249.75;5056397;28;1898;-38
2021/05/08 05:01:14;;;;;;;;;;;;;;;26.59;31.43;100263.81;5055773;28;1434;-39
2021/05/08 05:03:39;;;;;;;;;;;;;;;26.60;31.75;100270.91;5056141;28;810;-38
2021/05/08 05:06:05;;;;;;;;;;;;;;;26.64;32.03;100269.50;5056111;28;792;-34
2021/05/08 05:08:30;;;;;;;;;;;;;;;26.65;32.25;100273.03;5056009;28;1007;-35
2021/05/08 05:10:55;;;;;;;;;;;;;;;26.64;31.80;100292.97;5056121;28;827;-36
2021/05/08 05:13:21;;;;;;;;;;;;;;;26.60;31.14;100291.66;5055884;28;748;-36
2021/05/08 05:15:46;;;;;;;;;;;;;;;26.61;31.16;100296.84;5056131;28;902;-36
2021/05/08 05:18:12;;;;;;;;;;;;;;;26.65;31.70;100306.25;5037770;28;1291;-38
2021/05/08 05:20:37;;;;;;;;;;;;;;;26.67;31.82;100300.66;5055391;28;1965;-37
2021/05/08 05:23:02;;;;;;;;;;;;;;;26.56;31.85;100312.75;5056153;28;780;-35
2021/05/08 05:25:28;;;;;;;;;;;;;;;26.53;31.90;100315.84;5039187;28;967;-36
2021/05/08 05:27:53;;;;;;;;;;;;;;;26.57;31.95;100313.63;5039726;28;863;-36
2021/05/08 05:30:20;;;;;;;;;;;;;;;26.58;32.15;100315.28;5040187;28;799;-35
2021/05/08 05:32:45;;;;;;;;;;;;;;;26.97;32.46;100318.59;5037216;28;867;-39
2021/05/08 05:35:11;;;;;;;;;;;;;;;27.32;32.19;100326.84;5038907;28;827;-38
2021/05/08 05:37:36;;;;;;;;;;;;;;;27.54;31.94;100328.69;5021528;28;1105;-37
2021/05/08 05:40:01;;;;;;;;;;;;;;;27.58;31.91;100338.88;5038244;28;1969;-37
2021/05/08 05:42:27;;;;;;;;;;;;;;;27.69;31.65;100334.84;5039189;28;836;-35
2021/05/08 05:44:52;;;;;;;;;;;;;;;27.81;31.50;100335.13;5039513;28;823;-36
2021/05/08 05:47:21;;;;;;;;;;;;;;;27.86;31.55;100348.88;5039190;28;767;-37
2021/05/08 05:49:50;;;;;;;;;;;;;;;27.84;31.80;100358.22;5038958;28;822;-35
2021/05/08 05:52:15;;;;;;;;;;;;;;;27.72;31.81;100368.75;5039782;28;800;-37
2021/05/08 05:54:50;;;;;;;;;;;;;;;27.26;31.64;100360.00;5050614;28;956;-37
2021/05/08 05:57:16;;;;;;;;;;;;;;;27.24;31.62;100376.41;5059177;28;814;-37
2021/05/08 05:59:41;;;;;;;;;;;;;;;27.50;31.66;100383.09;5059073;28;1894;-37
2021/05/08 06:02:06;;;;;;;;;;;;;;;27.70;31.70;100379.75;5058798;28;754;-37
2021/05/08 06:04:32;;;;;;;;;;;;;;;27.80;31.73;100383.97;5059137;28;804;-33
2021/05/08 06:06:57;;;;;;;;;;;;;;;27.83;31.26;100388.97;5059159;28;788;-33
2021/05/08 06:09:25;;;;;;;;;;;;;;;27.94;31.40;100391.16;5048823;28;912;-36
2021/05/08 06:11:51;;;;;;;;;;;;;;;27.91;31.01;100394.22;5038620;28;831;-36
2021/05/08 06:14:16;;;;;;;;;;;;;;;28.00;30.85;100403.03;5039350;28;747;-37
2021/05/08 06:16:41;;;;;;;;;;;;;;;27.89;31.49;100404.44;5038465;28;864;-37
2021/05/08 06:19:06;;;;;;;;;;;;;;;27.87;31.30;100401.09;5038608;28;1905;-38
2021/05/08 06:21:32;;;;;;;;;;;;;;;27.85;31.47;100403.97;5038159;28;1256;-37
2021/05/08 06:23:57;;;;;;;;;;;;;;;27.91;31.12;100410.44;5044158;28;980;-37
2021/05/08 06:26:22;;;;;;;;;;;;;;;27.37;32.60;100402.72;5058834;28;850;-38
2021/05/08 06:29:16;;;;;;;;;;;;;;;27.39;32.59;100411.44;5058450;28;843;-37
2021/05/08 06:31:41;;;;;;;;;;;;;;;27.18;32.66;100414.16;5058105;28;771;-38
2021/05/08 06:34:07;;;;;;;;;;;;;;;27.33;32.80;100422.19;5058383;28;927;-40
2021/05/08 06:36:32;;;;;;;;;;;;;;;27.29;33.20;100426.31;5058269;28;767;-40
2021/05/08 06:38:57;;;;;;;;;;;;;;;27.08;32.88;100436.06;5057581;28;1991;-32
2021/05/08 06:41:23;;;;;;;;;;;;;;;26.58;31.50;100453.69;5058419;28;791;-32
2021/05/08 06:43:48;;;;;;;;;;;;;;;25.90;31.58;100454.53;5058425;28;776;-32
2021/05/08 06:46:13;;;;;;;;;;;;;;;25.96;31.35;100453.78;5057838;28;831;-38
2021/05/08 06:48:39;;;;;;;;;;;;;;;25.98;30.94;100477.84;5058406;28;803;-35
2021/05/08 06:51:04;;;;;;;;;;;;;;;25.77;30.71;100482.09;5058489;28;826;-38
2021/05/08 06:53:30;;;;;;;;;;;;;;;25.99;30.38;100503.81;5044225;28;831;-38
2021/05/08 06:55:55;;;;;;;;;;;;;;;26.18;30.33;100497.06;5057889;28;835;-32
2021/05/08 06:58:21;;;;;;;;;;;;;;;26.09;29.67;100509.75;5058041;28;756;-38
2021/05/08 07:00:46;;;;;;;;;;;;;;;26.09;29.83;100536.72;5055863;28;1902;-31
2021/05/08 07:03:11;;;;;;;;;;;;;;;26.15;29.25;100537.88;5058161;28;771;-38
2021/05/08 07:05:36;;;;;;;;;;;;;;;26.04;29.79;100537.28;5057830;28;854;-34
2021/05/08 07:08:02;;;;;;;;;;;;;;;25.93;29.47;100526.91;5057342;28;816;-37
2021/05/08 07:10:27;;;;;;;;;;;;;;;25.97;29.58;100527.41;5072759;28;1310;-33
2021/05/08 07:12:53;;;;;;;;;;;;;;;25.96;29.50;100523.84;5057497;28;807;-37
2021/05/08 07:15:18;;;;;;;;;;;;;;;26.05;29.35;100535.41;5057583;28;747;-33
2021/05/08 07:17:43;;;;;;;;;;;;;;;25.95;29.33;100542.91;5057766;28;752;-30
2021/05/08 07:20:09;;;;;;;;;;;;;;;25.85;29.17;100538.59;5056840;28;1901;-31
2021/05/08 07:22:34;;;;;;;;;;;;;;;25.91;29.48;100551.34;5057447;28;775;-30
2021/05/08 07:24:59;;;;;;;;;;;;;;;26.09;30.01;100546.69;5042072;28;968;-33
2021/05/08 07:27:24;;;;;;;;;;;;;;;26.14;31.25;100553.19;5037574;28;763;-36
2021/05/08 07:29:50;;;;;;;;;;;;;;;26.24;31.01;100544.84;5037750;28;755;-36
2021/05/08 07:32:15;;;;;;;;;;;;;;;25.95;29.67;100542.91;5037021;28;815;-35
2021/05/08 07:34:40;;;;;;;;;;;;;;;25.90;29.12;100557.78;5037049;28;981;-32
2021/05/08 07:37:06;;;;;;;;;;;;;;;26.10;30.50;100559.13;5037603;28;747;-37
2021/05/08 07:39:31;;;;;;;;;;;;;;;26.08;28.82;100550.38;5047503;28;1975;-34
2021/05/08 07:41:56;;;;;;;;;;;;;;;26.22;31.35;100546.06;5057370;28;786;-34
2021/05/08 07:44:21;;;;;;;;;;;;;;;26.32;30.93;100537.72;5057231;28;814;-35
2021/05/08 07:46:47;;;;;;;;;;;;;;;26.36;32.44;100536.38;5056503;28;767;-37
2021/05/08 07:49:12;;;;;;;;;;;;;;;26.46;32.13;100534.22;5056683;28;806;-36
2021/05/08 07:51:37;;;;;;;;;;;;;;;26.48;33.00;100544.84;5056834;28;835;-36
2021/05/08 07:54:03;;;;;;;;;;;;;;;26.50;32.56;100537.41;5055892;28;900;-36
2021/05/08 07:56:32;;;;;;;;;;;;;;;26.51;32.06;100536.38;5050215;28;869;-37
2021/05/08 07:59:00;;;;;;;;;;;;;;;26.46;30.79;100536.13;5051980;28;1906;-36
2021/05/08 08:01:26;;;;;;;;;;;;;;;26.41;32.29;100524.00;5036540;28;739;-33
2021/05/08 08:03:51;;;;;;;;;;;;;;;26.35;32.80;100543.63;5036671;28;958;-37
2021/05/08 08:06:16;;;;;;;;;;;;;;;26.41;31.56;100544.72;5037217;28;811;-37
2021/05/08 08:08:41;;;;;;;;;;;;;;;26.44;31.48;100571.38;5040196;28;917;-37
2021/05/08 08:11:07;;;;;;;;;;;;;;;26.45;31.44;100570.31;5056995;28;771;-37
2021/05/08 08:13:32;;;;;;;;;;;;;;;26.41;32.93;100583.34;5056726;28;783;-37
2021/05/08 08:15:57;;;;;;;;;;;;;;;26.50;33.23;100603.00;5056367;28;847;-35
2021/05/08 08:18:26;;;;;;;;;;;;;;;26.64;32.75;100604.03;5056498;28;744;-36
2021/05/08 08:20:51;;;;;;;;;;;;;;;26.49;32.48;100608.56;5055622;28;1898;-36
2021/05/08 08:23:17;;;;;;;;;;;;;;;26.62;32.92;100610.63;5055671;28;916;-37
2021/05/08 08:25:42;;;;;;;;;;;;;;;26.79;32.71;100624.81;5056747;28;966;-36
2021/05/08 08:28:07;;;;;;;;;;;;;;;26.80;32.72;100626.50;5052390;28;814;-35
2021/05/08 08:30:32;;;;;;;;;;;;;;;26.57;31.26;100626.53;5036151;28;1047;-37
2021/05/08 08:32:58;;;;;;;;;;;;;;;26.64;30.50;100628.31;5036488;28;812;-38
2021/05/08 08:35:23;;;;;;;;;;;;;;;26.59;30.63;100622.63;5036363;28;736;-35
2021/05/08 08:37:48;;;;;;;;;;;;;;;26.59;31.22;100616.41;5036191;28;767;-37
2021/05/08 08:40:14;;;;;;;;;;;;;;;26.48;30.77;100614.97;5034689;28;1910;-37
2021/05/08 08:42:39;;;;;;;;;;;;;;;26.53;30.88;100616.13;5056195;28;957;-37
2021/05/08 08:45:05;;;;;;;;;;;;;;;26.44;30.72;100610.97;5055714;28;840;-37
2021/05/08 08:47:30;;;;;;;;;;;;;;;26.51;31.38;100607.34;5056274;28;795;-35
2021/05/08 08:50:14;;;;;;;;;;;;;;;26.59;31.99;100611.00;5055949;28;831;-36
2021/05/08 08:52:39;;;;;;;;;;;;;;;26.83;32.14;100612.63;5055801;28;818;-33
2021/05/08 08:55:07;;;;;;;;;;;;;;;26.77;32.95;100621.47;5056539;28;908;-34
2021/05/08 08:57:41;;;;;;;;;;;;;;;26.75;32.70;100629.75;5056277;28;1156;-38
2021/05/08 09:00:14;;;;;;;;;;;;;;;26.74;32.41;100630.75;5038372;28;1906;-37
2021/05/08 09:02:40;;;;;;;;;;;;;;;26.83;32.03;100645.00;5040225;28;806;-32
2021/05/08 09:05:06;;;;;;;;;;;;;;;26.83;32.13;100645.00;5040581;28;879;-37
2021/05/08 09:07:31;;;;;;;;;;;;;;;26.87;32.00;100649.03;5039636;28;848;-36
2021/05/08 09:09:56;;;;;;;;;;;;;;;26.96;32.23;100647.06;5069208;28;1137;-38
2021/05/08 09:12:26;;;;;;;;;;;;;;;26.88;32.79;100650.69;5060421;28;864;-38
2021/05/08 09:14:52;;;;;;;;;;;;;;;26.85;32.44;100650.22;5059632;28;838;-34
2021/05/08 09:17:18;;;;;;;;;;;;;;;26.96;32.32;100651.66;5059877;28;791;-35
2021/05/08 09:19:48;;;;;;;;;;;;;;;27.03;31.89;100652.59;5059817;28;1957;-38
2021/05/08 09:22:26;;;;;;;;;;;;;;;27.00;31.94;100643.00;5059520;28;774;-36
2021/05/08 09:25:03;;;;;;;;;;;;;;;26.92;32.92;100656.56;5059659;28;908;-38
2021/05/08 09:27:34;;;;;;;;;;;;;;;26.78;32.87;100650.97;5059856;28;811;-34
2021/05/08 09:30:06;;;;;;;;;;;;;;;26.80;32.97;100660.72;5059230;28;803;-37
2021/05/08 09:32:38;;;;;;;;;;;;;;;26.82;33.04;100656.84;5052560;28;850;-37
2021/05/08 09:35:08;;;;;;;;;;;;;;;26.93;33.21;100652.84;5040126;28;791;-35
2021/05/08 09:37:35;;;;;;;;;;;;;;;26.97;33.22;100656.84;5039261;28;839;-38
2021/05/08 09:40:13;;;;;;;;;;;;;;;26.95;33.08;100656.19;5069801;28;1909;-34
2021/05/08 09:42:42;;;;;;;;;;;;;;;26.98;32.87;100671.19;5059418;28;731;-37
2021/05/08 09:45:07;;;;;;;;;;;;;;;27.02;33.07;100680.63;5059100;28;773;-35
2021/05/08 09:47:32;;;;;;;;;;;;;;;26.99;32.95;100689.06;5059820;28;725;-38
2021/05/08 09:49:58;;;;;;;;;;;;;;;26.98;33.03;100690.06;5059256;28;840;-33
2021/05/08 09:52:23;;;;;;;;;;;;;;;26.97;32.76;100688.41;5057535;28;1217;-38
2021/05/08 09:55:01;;;;;;;;;;;;;;;27.04;33.03;100711.00;5058981;28;884;-37
2021/05/08 09:57:41;;;;;;;;;;;;;;;27.03;33.03;100720.09;5058500;28;815;-36
2021/05/08 10:00:31;;;;;;;;;;;;;;;27.09;32.93;100721.22;5059021;28;1898;-35
2021/05/08 10:03:23;;;;;;;;;;;;;;;27.03;31.41;100717.38;5059060;28;763;-35
2021/05/08 10:05:57;;;;;;;;;;;;;;;27.09;31.17;100724.75;5037141;28;1508;-36
2021/05/08 10:08:23;;;;;;;;;;;;;;;27.16;31.55;100729.44;5040276;28;897;-37
2021/05/08 10:10:48;;;;;;;;;;;;;;;27.16;31.33;100734.84;5058287;28;875;-36
2021/05/08 10:13:13;;;;;;;;;;;;;;;27.17;29.87;100731.09;5058329;28;795;-37
2021/05/08 10:15:41;;;;;;;;;;;;;;;27.13;29.17;100739.56;5059033;28;842;-37
2021/05/08 10:18:13;;;;;;;;;;;;;;;27.14;28.84;100741.25;5058910;28;758;-38
2021/05/08 10:20:38;;;;;;;;;;;;;;;27.11;28.92;100746.19;5058549;28;1902;-36
2021/05/08 10:23:05;;;;;;;;;;;;;;;27.26;28.74;100748.88;5058998;28;740;-33
2021/05/08 10:25:30;;;;;;;;;;;;;;;27.12;28.94;100739.75;5058464;28;947;-32
2021/05/08 10:27:55;;;;;;;;;;;;;;;27.04;28.97;100740.69;5041235;28;745;-37
2021/05/08 10:30:33;;;;;;;;;;;;;;;27.15;28.84;100734.00;5058658;28;744;-37
2021/05/08 10:32:59;;;;;;;;;;;;;;;27.03;30.17;100739.00;5040809;28;832;-38
2021/05/08 10:35:43;;;;;;;;;;;;;;;27.23;30.77;100736.59;5058188;28;851;-37
2021/05/08 10:38:23;;;;;;;;;;;;;;;27.38;31.08;100742.03;5054239;28;1016;-34
2021/05/08 10:41:02;;;;;;;;;;;;;;;27.43;31.12;100754.97;5038105;28;1913;-37
2021/05/08 10:43:43;;;;;;;;;;;;;;;27.42;30.99;100756.00;5038456;28;748;-34
2021/05/08 10:46:09;;;;;;;;;;;;;;;27.50;31.01;100755.06;5038500;28;764;-36
2021/05/08 10:48:35;;;;;;;;;;;;;;;27.52;31.41;100761.13;5038444;28;857;-38
2021/05/08 10:51:00;;;;;;;;;;;;;;;27.51;31.44;100763.00;5038301;28;779;-37
2021/05/08 10:53:41;;;;;;;;;;;;;;;27.61;31.18;100745.69;5039746;28;994;-37
2021/05/08 10:56:07;;;;;;;;;;;;;;;27.58;31.45;100744.16;5058426;28;718;-34
2021/05/08 10:58:33;;;;;;;;;;;;;;;27.54;31.53;100747.44;5057693;28;779;-37
2021/05/08 11:00:58;;;;;;;;;;;;;;;27.55;31.94;100747.25;5058024;28;1961;-37
2021/05/08 11:03:30;;;;;;;;;;;;;;;27.57;31.70;100747.06;5057749;28;823;-37
2021/05/08 11:06:11;;;;;;;;;;;;;;;27.50;32.14;100763.19;5057677;28;814;-36
2021/05/08 11:08:36;;;;;;;;;;;;;;;27.51;31.94;100757.59;5057223;28;856;-36
2021/05/08 11:11:04;;;;;;;;;;;;;;;27.57;31.74;100763.28;5057933;28;780;-36
2021/05/08 11:13:42;;;;;;;;;;;;;;;27.49;32.37;100756.09;5057274;28;902;-36
2021/05/08 11:16:32;;;;;;;;;;;;;;;27.55;32.12;100776.97;5057909;28;840;-35
2021/05/08 11:18:58;;;;;;;;;;;;;;;27.49;32.48;100772.31;5057751;28;1965;-37
2021/05/08 11:21:23;;;;;;;;;;;;;;;27.52;32.26;100766.53;5057325;28;1305;-37
2021/05/08 11:23:49;;;;;;;;;;;;;;;27.51;32.19;100771.09;5056431;28;983;-36
2021/05/08 11:26:24;;;;;;;;;;;;;;;27.51;32.45;100767.53;5057523;28;742;-37
2021/05/08 11:28:55;;;;;;;;;;;;;;;27.51;32.31;100768.41;5057609;28;780;-36
2021/05/08 11:31:24;;;;;;;;;;;;;;;27.47;32.43;100777.91;5057224;28;863;-37
2021/05/08 11:33:49;;;;;;;;;;;;;;;27.53;32.31;100772.78;5057256;28;793;-36
2021/05/08 11:36:15;;;;;;;;;;;;;;;27.49;32.51;100775.03;5057470;28;831;-37
2021/05/08 11:38:40;;;;;;;;;;;;;;;27.52;32.47;100774.66;5057092;28;990;-35
2021/05/08 11:41:21;;;;;;;;;;;;;;;27.52;32.31;100766.53;5056638;28;1975;-37
2021/05/08 11:43:53;;;;;;;;;;;;;;;27.50;32.41;100769.44;5057365;28;823;-35
2021/05/08 11:46:24;;;;;;;;;;;;;;;27.49;32.63;100775.84;5057100;28;792;-37
2021/05/08 11:48:50;;;;;;;;;;;;;;;27.51;32.65;100779.19;5057190;28;824;-36
2021/05/08 11:51:15;;;;;;;;;;;;;;;27.46;32.40;100772.69;5057518;28;834;-36
2021/05/08 11:53:40;;;;;;;;;;;;;;;27.44;32.58;100772.03;5056558;28;920;-36
2021/05/08 11:56:06;;;;;;;;;;;;;;;27.54;32.50;100779.88;5056820;28;780;-37
2021/05/08 11:58:31;;;;;;;;;;;;;;;27.52;32.66;100777.34;5056943;28;747;-35
2021/05/08 12:00:57;;;;;;;;;;;;;;;27.47;32.68;100780.59;5056933;28;1967;-34
2021/05/08 12:03:24;;;;;;;;;;;;;;;27.40;33.01;100782.34;5056918;28;780;-37
2021/05/08 12:05:49;;;;;;;;;;;;;;;27.46;32.59;100781.63;5056584;28;1423;-35
2021/05/08 12:08:16;;;;;;;;;;;;;;;27.43;32.76;100790.09;5056663;28;1007;-35
2021/05/08 12:10:41;;;;;;;;;;;;;;;27.41;33.16;100783.22;5056848;28;796;-35
2021/05/08 12:13:08;;;;;;;;;;;;;;;27.38;32.94;100793.34;5055693;28;824;-36
2021/05/08 12:15:34;;;;;;;;;;;;;;;27.39;33.12;100797.72;5057075;28;794;-37
2021/05/08 12:18:03;;;;;;;;;;;;;;;27.45;32.88;100792.59;5056810;28;780;-35
2021/05/08 12:20:29;;;;;;;;;;;;;;;27.38;32.77;100785.25;5056079;28;1978;-37
2021/05/08 12:23:01;;;;;;;;;;;;;;;27.44;32.50;100786.38;5072149;28;811;-36
2021/05/08 12:25:27;;;;;;;;;;;;;;;27.55;32.16;100784.22;5071686;28;990;-37
2021/05/08 12:28:11;;;;;;;;;;;;;;;27.58;32.27;100798.22;5056441;28;819;-37
2021/05/08 12:30:39;;;;;;;;;;;;;;;27.53;32.35;100802.50;5056646;28;956;-37
2021/05/08 12:33:04;;;;;;;;;;;;;;;27.62;32.57;100798.69;5056817;28;811;-35
2021/05/08 12:35:30;;;;;;;;;;;;;;;27.62;32.34;100801.41;5056170;28;846;-37
2021/05/08 12:37:55;;;;;;;;;;;;;;;27.58;32.31;100797.38;5056525;28;905;-34
2021/05/08 12:40:32;;;;;;;;;;;;;;;27.57;32.42;100793.00;5038620;28;1918;-36
2021/05/08 12:42:57;;;;;;;;;;;;;;;27.55;32.48;100797.75;5036289;28;864;-37
2021/05/08 12:45:23;;;;;;;;;;;;;;;27.58;32.31;100798.22;5018068;28;862;-36
2021/05/08 12:47:48;;;;;;;;;;;;;;;27.59;32.66;100804.47;5051574;28;831;-36
2021/05/08 12:50:14;;;;;;;;;;;;;;;27.55;32.60;100795.88;5036410;28;772;-37
2021/05/08 12:52:42;;;;;;;;;;;;;;;27.42;32.59;100793.81;5036327;28;852;-38
2021/05/08 12:55:28;;;;;;;;;;;;;;;27.37;32.89;100797.09;5052163;28;953;-36
2021/05/08 12:57:53;;;;;;;;;;;;;;;27.31;32.50;100794.28;5056199;28;1785;-37